createdAt,value
2018-07-26T00:01:13.453Z,26.50
2018-07-26T00:03:42.745Z,26.40
2018-07-26T00:06:11.985Z,26.40
2018-07-26T00:08:41.247Z,26.40
2018-07-26T00:11:10.476Z,26.30
2018-07-26T00:13:40.039Z,26.30
2018-07-26T00:16:09.252Z,26.20
2018-07-26T00:18:38.623Z,26.20
2018-07-26T00:21:08.267Z,26.10
2018-07-26T00:23:37.480Z,26.10
2018-07-26T00:26:06.728Z,26.00
2018-07-26T00:28:35.989Z,26.00
2018-07-26T00:31:05.220Z,25.90
2018-07-26T00:33:34.424Z,25.90
2018-07-26T00:36:03.689Z,25.80
2018-07-26T00:38:32.908Z,25.80
2018-07-26T00:41:02.131Z,25.80
2018-07-26T00:43:31.977Z,25.80
2018-07-26T00:46:01.205Z,25.70
2018-07-26T00:48:30.431Z,25.60
2018-07-26T00:50:59.677Z,25.50
2018-07-26T00:53:29.016Z,25.40
2018-07-26T00:55:58.240Z,25.40
2018-07-26T00:58:27.480Z,25.30
2018-07-26T01:00:56.711Z,25.40
2018-07-26T01:08:23.729Z,25.30
2018-07-26T01:10:52.954Z,25.10
2018-07-26T01:13:22.207Z,25.00
2018-07-26T01:15:51.808Z,24.90
2018-07-26T01:18:21.022Z,24.90
2018-07-26T01:20:50.289Z,24.90
2018-07-26T01:25:48.311Z,24.80
2018-07-26T01:28:18.137Z,24.80
2018-07-26T01:30:47.360Z,24.80
2018-07-26T01:33:17.044Z,24.70
2018-07-26T01:35:46.308Z,24.70
2018-07-26T01:38:15.717Z,24.60
2018-07-26T01:40:44.985Z,24.60
2018-07-26T01:43:52.641Z,24.60
2018-07-26T01:46:23.157Z,24.60
2018-07-26T01:48:52.435Z,24.60
2018-07-26T01:53:50.417Z,24.50
2018-07-26T01:58:48.572Z,24.50
2018-07-26T02:01:18.072Z,24.40
2018-07-26T02:03:47.316Z,24.40
2018-07-26T02:06:17.040Z,24.40
2018-07-26T02:08:46.288Z,24.40
2018-07-26T02:11:15.533Z,24.40
2018-07-26T02:16:13.978Z,24.50
2018-07-26T02:18:43.228Z,24.30
2018-07-26T02:23:41.269Z,24.10
2018-07-26T02:26:10.601Z,24.10
2018-07-26T02:28:40.176Z,24.00
2018-07-26T02:31:09.527Z,24.00
2018-07-26T02:33:38.742Z,23.90
2018-07-26T02:36:08.017Z,23.90
2018-07-26T02:41:06.129Z,24.00
2018-07-26T02:43:35.405Z,23.90
2018-07-26T02:46:04.685Z,23.90
2018-07-26T02:48:33.945Z,23.90
2018-07-26T02:51:03.641Z,23.90
2018-07-26T02:53:32.908Z,23.80
2018-07-26T02:56:02.174Z,23.70
2018-07-26T02:58:31.417Z,23.70
2018-07-26T03:03:29.445Z,23.60
2018-07-26T03:05:58.805Z,23.60
2018-07-26T03:08:28.050Z,23.60
2018-07-26T03:10:57.259Z,23.60
2018-07-26T03:13:26.849Z,23.50
2018-07-26T03:15:56.077Z,23.50
2018-07-26T03:18:26.477Z,23.40
2018-07-26T03:20:55.819Z,23.40
2018-07-26T03:23:25.003Z,23.30
2018-07-26T03:25:54.210Z,23.20
2018-07-26T03:28:23.464Z,23.20
2018-07-26T03:30:52.857Z,23.20
2018-07-26T03:33:22.086Z,23.20
2018-07-26T03:35:51.401Z,23.10
2018-07-26T03:38:20.637Z,23.10
2018-07-26T03:40:49.848Z,23.10
2018-07-26T03:43:19.104Z,23.10
2018-07-26T03:45:48.328Z,23.10
2018-07-26T03:50:46.632Z,23.00
2018-07-26T03:53:15.998Z,23.00
2018-07-26T03:55:45.606Z,22.90
2018-07-26T03:58:15.001Z,22.80
2018-07-26T04:00:44.330Z,22.80
2018-07-26T04:03:13.562Z,22.80
2018-07-26T04:05:43.116Z,22.80
2018-07-26T04:08:12.328Z,22.80
2018-07-26T04:10:41.544Z,22.80
2018-07-26T04:13:10.805Z,22.90
2018-07-26T04:15:40.098Z,22.80
2018-07-26T04:18:09.368Z,22.80
2018-07-26T04:20:39.221Z,22.80
2018-07-26T04:23:08.445Z,22.80
2018-07-26T04:25:37.697Z,22.80
2018-07-26T04:28:06.983Z,22.80
2018-07-26T04:30:36.215Z,22.80
2018-07-26T04:33:05.421Z,22.80
2018-07-26T04:35:34.705Z,22.80
2018-07-26T04:38:03.912Z,22.80
2018-07-26T04:40:33.145Z,23.00
2018-07-26T04:43:02.529Z,23.00
2018-07-26T04:45:31.745Z,23.00
2018-07-26T04:48:01.057Z,23.00
2018-07-26T04:50:30.317Z,22.90
2018-07-26T04:52:59.557Z,22.90
2018-07-26T04:57:58.856Z,22.90
2018-07-26T05:00:28.097Z,22.90
2018-07-26T05:02:57.304Z,22.90
2018-07-26T05:05:27.229Z,22.90
2018-07-26T05:07:56.496Z,23.00
2018-07-26T05:10:25.771Z,23.00
2018-07-26T05:12:55.022Z,23.00
2018-07-26T05:15:24.496Z,23.00
2018-07-26T05:17:53.841Z,23.10
2018-07-26T05:20:23.084Z,23.10
2018-07-26T05:25:21.405Z,23.20
2018-07-26T05:27:50.757Z,23.20
2018-07-26T05:30:19.980Z,23.20
2018-07-26T05:35:18.000Z,23.30
2018-07-26T05:37:47.373Z,23.40
2018-07-26T05:40:16.596Z,23.40
2018-07-26T05:42:45.948Z,23.40
2018-07-26T05:45:15.192Z,23.40
2018-07-26T05:47:44.484Z,23.40
2018-07-26T05:50:14.012Z,23.50
2018-07-26T05:52:43.278Z,23.50
2018-07-26T05:57:41.313Z,23.60
2018-07-26T06:00:12.679Z,23.60
2018-07-26T06:02:42.981Z,23.70
2018-07-26T06:05:12.233Z,23.70
2018-07-26T06:10:10.603Z,23.80
2018-07-26T06:12:39.839Z,23.80
2018-07-26T06:15:11.368Z,23.90
2018-07-26T06:17:41.064Z,23.90
2018-07-26T06:20:11.747Z,23.90
2018-07-26T06:22:41.272Z,23.90
2018-07-26T06:25:10.817Z,24.00
2018-07-26T06:27:40.331Z,24.00
2018-07-26T06:30:13.280Z,24.10
2018-07-26T06:32:42.493Z,24.20
2018-07-26T06:35:11.742Z,24.20
2018-07-26T06:37:41.021Z,24.20
2018-07-26T06:40:10.316Z,24.30
2018-07-26T06:42:39.756Z,24.40
2018-07-26T06:45:09.884Z,24.40
2018-07-26T06:47:39.373Z,24.50
2018-07-26T06:50:10.317Z,24.50
2018-07-26T06:52:40.312Z,24.50
2018-07-26T06:57:38.809Z,24.60
2018-07-26T07:00:09.660Z,24.60
2018-07-26T07:02:39.717Z,24.70
2018-07-26T07:05:09.812Z,24.70
2018-07-26T07:07:39.651Z,24.80
2018-07-26T07:10:09.165Z,24.80
2018-07-26T07:12:38.432Z,24.90
2018-07-26T07:15:08.689Z,24.90
2018-07-26T07:17:37.978Z,25.00
2018-07-26T07:20:08.195Z,25.10
2018-07-26T07:22:37.500Z,25.20
2018-07-26T07:25:07.021Z,25.20
2018-07-26T07:27:36.556Z,25.30
2018-07-26T07:30:08.457Z,25.30
2018-07-26T07:32:37.770Z,25.40
2018-07-26T07:35:07.081Z,25.50
2018-07-26T07:37:37.287Z,25.50
2018-07-26T07:40:07.008Z,25.60
2018-07-26T07:42:36.253Z,25.70
2018-07-26T07:47:35.029Z,25.70
2018-07-26T07:50:04.837Z,25.80
2018-07-26T07:52:34.284Z,25.80
2018-07-26T07:57:33.020Z,26.00
2018-07-26T08:00:02.853Z,26.10
2018-07-26T08:02:32.084Z,26.20
2018-07-26T08:05:01.345Z,26.20
2018-07-26T08:07:30.625Z,26.30
2018-07-26T08:09:59.857Z,26.40
2018-07-26T08:12:29.178Z,26.40
2018-07-26T08:14:59.069Z,26.50
2018-07-26T08:17:28.328Z,26.50
2018-07-26T08:19:57.628Z,26.60
2018-07-26T08:22:28.149Z,26.70
2018-07-26T08:24:57.665Z,26.70
2018-07-26T08:27:26.932Z,26.70
2018-07-26T08:29:56.364Z,26.80
2018-07-26T08:32:25.602Z,26.90
2018-07-26T08:34:54.808Z,27.00
2018-07-26T08:37:24.300Z,27.10
2018-07-26T08:39:53.523Z,27.10
2018-07-26T08:42:22.906Z,27.20
2018-07-26T08:44:52.444Z,27.30
2018-07-26T08:47:21.816Z,27.40
2018-07-26T08:49:51.001Z,27.50
2018-07-26T08:52:20.360Z,27.50
2018-07-26T08:54:49.504Z,27.60
2018-07-26T08:57:18.720Z,27.60
2018-07-26T08:59:47.997Z,27.70
2018-07-26T09:02:17.252Z,27.70
2018-07-26T09:07:15.544Z,27.80
2018-07-26T09:09:44.927Z,28.00
2018-07-26T09:12:14.168Z,28.10
2018-07-26T09:14:43.456Z,28.10
2018-07-26T09:17:12.843Z,28.20
2018-07-26T09:19:43.100Z,28.30
2018-07-26T09:22:12.361Z,28.40
2018-07-26T09:24:43.045Z,28.50
2018-07-26T09:27:13.888Z,28.50
2018-07-26T09:29:43.125Z,28.50
2018-07-26T09:32:12.940Z,28.70
2018-07-26T09:34:42.232Z,28.70
2018-07-26T09:37:12.417Z,28.80
2018-07-26T09:39:41.639Z,28.80
2018-07-26T09:42:11.004Z,28.90
2018-07-26T09:44:41.744Z,28.90
2018-07-26T09:47:10.961Z,29.00
2018-07-26T09:49:40.525Z,29.10
2018-07-26T09:52:10.496Z,29.10
2018-07-26T09:54:39.782Z,29.10
2018-07-26T09:57:09.161Z,29.20
2018-07-26T09:59:39.076Z,29.30
2018-07-26T10:02:08.328Z,29.40
2018-07-26T10:04:37.599Z,29.40
2018-07-26T10:07:07.048Z,29.60
2018-07-26T10:09:36.285Z,29.70
2018-07-26T10:12:06.001Z,29.70
2018-07-26T10:14:35.260Z,29.70
2018-07-26T10:17:04.580Z,29.80
2018-07-26T10:19:34.506Z,29.90
2018-07-26T10:22:03.957Z,30.00
2018-07-26T10:24:33.277Z,30.10
2018-07-26T10:27:03.201Z,30.20
2018-07-26T10:32:01.217Z,30.30
2018-07-26T10:34:31.382Z,30.30
2018-07-26T10:37:00.600Z,30.30
2018-07-26T10:39:29.857Z,30.30
2018-07-26T10:41:59.081Z,30.30
2018-07-26T10:44:28.318Z,30.50
2018-07-26T10:49:26.445Z,30.80
2018-07-26T10:51:55.674Z,31.00
2018-07-26T10:54:24.936Z,31.20
2018-07-26T10:56:54.534Z,31.40
2018-07-26T10:59:23.785Z,31.60
2018-07-26T11:01:53.076Z,31.70
2018-07-26T11:04:22.321Z,31.80
2018-07-26T11:06:51.557Z,31.90
2018-07-26T11:09:20.847Z,32.00
2018-07-26T11:11:50.089Z,32.10
2018-07-26T11:14:19.361Z,32.40
2018-07-26T11:16:48.585Z,32.70
2018-07-26T11:21:47.362Z,33.10
2018-07-26T11:24:16.809Z,33.70
2018-07-26T11:26:46.232Z,34.20
2018-07-26T11:29:15.497Z,35.30
2018-07-26T11:31:44.720Z,36.90
2018-07-26T11:34:14.065Z,38.30
2018-07-26T11:36:43.753Z,39.50
2018-07-26T11:39:12.976Z,40.50
2018-07-26T11:41:42.889Z,41.30
2018-07-26T11:44:12.173Z,41.90
2018-07-26T11:46:41.548Z,42.40
2018-07-26T11:49:10.884Z,42.80
2018-07-26T11:51:40.125Z,43.20
2018-07-26T11:54:09.356Z,43.50
2018-07-26T11:56:38.632Z,43.90
2018-07-26T12:01:36.716Z,44.60
2018-07-26T12:04:06.101Z,44.70
2018-07-26T12:06:35.347Z,44.60
2018-07-26T12:09:07.001Z,44.90
2018-07-26T12:11:36.233Z,45.20
2018-07-26T12:14:05.472Z,45.40
2018-07-26T12:16:35.221Z,45.60
2018-07-26T12:19:04.529Z,45.70
2018-07-26T12:21:33.864Z,46.20
2018-07-26T12:24:03.359Z,46.40
2018-07-26T12:26:32.611Z,46.60
2018-07-26T12:29:01.833Z,46.70
2018-07-26T12:31:31.077Z,46.70
2018-07-26T12:34:00.292Z,46.90
2018-07-26T12:38:58.760Z,47.10
2018-07-26T12:41:27.981Z,47.30
2018-07-26T12:43:57.246Z,47.60
2018-07-26T12:46:26.837Z,48.00
2018-07-26T12:48:56.097Z,48.30
2018-07-26T12:53:54.480Z,48.60
2018-07-26T12:56:23.720Z,48.80
2018-07-26T12:58:52.968Z,48.60
2018-07-26T13:01:22.263Z,47.50
2018-07-26T13:03:51.506Z,46.00
2018-07-26T13:06:21.126Z,44.60
2018-07-26T13:08:50.769Z,44.50
2018-07-26T13:11:20.304Z,44.80
2018-07-26T13:13:49.529Z,45.20
2018-07-26T13:16:18.837Z,45.20
2018-07-26T13:18:48.065Z,46.30
2018-07-26T13:21:17.272Z,47.40
2018-07-26T13:23:46.559Z,48.00
2018-07-26T13:26:15.758Z,48.30
2018-07-26T13:28:44.962Z,47.70
2018-07-26T13:31:14.549Z,47.10
2018-07-26T13:33:43.786Z,46.80
2018-07-26T13:36:13.017Z,46.80
2018-07-26T13:38:42.773Z,45.80
2018-07-26T13:41:12.282Z,44.60
2018-07-26T13:43:41.605Z,44.10
2018-07-26T13:46:10.970Z,45.20
2018-07-26T13:48:40.385Z,46.90
2018-07-26T13:51:09.580Z,48.20
2018-07-26T13:53:39.181Z,49.20
2018-07-26T13:56:08.673Z,49.70
2018-07-26T13:58:38.197Z,50.10
2018-07-26T14:01:07.569Z,50.60
2018-07-26T14:03:36.785Z,51.00
2018-07-26T14:06:06.065Z,51.40
2018-07-26T14:08:35.385Z,51.70
2018-07-26T14:11:04.757Z,51.80
2018-07-26T14:13:33.964Z,52.10
2018-07-26T14:16:03.870Z,52.10
2018-07-26T14:18:33.216Z,52.20
2018-07-26T14:21:02.448Z,52.40
2018-07-26T14:23:37.665Z,52.50
2018-07-26T14:26:08.560Z,52.80
2018-07-26T14:28:37.801Z,52.80
2018-07-26T14:31:07.804Z,52.80
2018-07-26T14:33:37.206Z,53.00
2018-07-26T14:36:06.649Z,53.00
2018-07-26T14:38:35.933Z,53.00
2018-07-26T14:41:05.148Z,52.80
2018-07-26T14:43:34.871Z,52.70
2018-07-26T14:46:04.430Z,52.80
2018-07-26T14:48:33.641Z,52.90
2018-07-26T14:51:02.874Z,53.00
2018-07-26T14:56:01.229Z,53.20
2018-07-26T14:58:30.641Z,53.50
2018-07-26T15:00:59.907Z,53.40
2018-07-26T15:03:29.227Z,53.40
2018-07-26T15:05:58.449Z,53.40
2018-07-26T15:08:27.732Z,53.30
2018-07-26T15:10:56.968Z,53.30
2018-07-26T15:15:55.729Z,53.20
2018-07-26T15:18:25.121Z,53.30
2018-07-26T15:20:54.417Z,53.30
2018-07-26T15:23:23.693Z,53.40
2018-07-26T15:25:52.908Z,53.60
2018-07-26T15:28:22.175Z,53.40
2018-07-26T15:30:51.428Z,53.50
2018-07-26T15:33:20.636Z,53.50
2018-07-26T15:35:49.978Z,53.60
2018-07-26T15:38:19.366Z,53.60
2018-07-26T15:40:48.713Z,53.60
2018-07-26T15:43:18.105Z,53.60
2018-07-26T15:45:47.820Z,53.30
2018-07-26T15:48:17.428Z,53.10
2018-07-26T15:50:46.861Z,53.00
2018-07-26T15:53:17.421Z,53.10
2018-07-26T15:55:46.757Z,53.30
2018-07-26T15:58:16.169Z,53.20
2018-07-26T16:00:45.696Z,53.20
2018-07-26T16:03:15.522Z,52.90
2018-07-26T16:05:45.121Z,52.40
2018-07-26T16:08:15.733Z,52.10
2018-07-26T16:10:44.976Z,51.90
2018-07-26T16:16:05.742Z,52.20
2018-07-26T16:18:35.251Z,52.20
2018-07-26T16:21:04.555Z,52.20
2018-07-26T16:23:34.524Z,52.10
2018-07-26T16:26:03.820Z,51.90
2018-07-26T16:28:35.273Z,51.90
2018-07-26T16:31:05.805Z,51.80
2018-07-26T16:33:35.522Z,51.90
2018-07-26T16:36:04.866Z,51.90
2018-07-26T16:38:34.218Z,51.70
2018-07-26T16:41:03.588Z,51.50
2018-07-26T16:43:32.831Z,51.50
2018-07-26T16:46:02.964Z,51.40
2018-07-26T16:48:32.135Z,51.30
2018-07-26T16:51:01.457Z,51.30
2018-07-26T16:53:31.055Z,51.00
2018-07-26T16:56:00.622Z,50.90
2018-07-26T16:58:48.724Z,50.70
2018-07-26T17:01:17.939Z,50.50
2018-07-26T17:03:47.509Z,50.30
2018-07-26T17:06:17.790Z,49.80
2018-07-26T17:08:47.447Z,49.50
2018-07-26T17:11:16.899Z,49.50
2018-07-26T17:13:46.493Z,49.50
2018-07-26T17:16:15.739Z,49.40
2018-07-26T17:18:45.204Z,49.40
2018-07-26T17:21:14.923Z,49.30
2018-07-26T17:23:44.125Z,49.10
2018-07-26T17:26:13.434Z,48.90
2018-07-26T17:28:43.907Z,48.70
2018-07-26T17:31:13.203Z,48.50
2018-07-26T17:33:43.180Z,48.30
2018-07-26T17:36:13.677Z,48.20
2018-07-26T17:38:45.283Z,47.90
2018-07-26T17:41:15.248Z,47.80
2018-07-26T17:43:44.973Z,47.50
2018-07-26T17:46:14.832Z,47.30
2018-07-26T17:48:44.411Z,47.00
2018-07-26T17:51:13.743Z,46.70
2018-07-26T17:53:44.211Z,46.40
2018-07-26T17:56:13.855Z,46.10
2018-07-26T17:58:44.128Z,45.90
2018-07-26T18:01:14.640Z,45.40
2018-07-26T18:03:44.175Z,44.70
2018-07-26T18:06:16.402Z,43.80
2018-07-26T18:08:50.308Z,43.00
2018-07-26T18:11:19.535Z,42.40
2018-07-26T18:13:48.858Z,41.80
2018-07-26T18:16:19.611Z,41.30
2018-07-26T18:18:48.835Z,40.90
2018-07-26T18:21:18.279Z,40.50
2018-07-26T18:23:47.647Z,40.20
2018-07-26T18:26:17.115Z,39.90
2018-07-26T18:28:46.528Z,39.70
2018-07-26T18:31:15.850Z,39.30
2018-07-26T18:33:47.391Z,39.10
2018-07-26T18:36:21.047Z,38.90
2018-07-26T18:38:50.519Z,38.60
2018-07-26T18:41:20.207Z,38.50
2018-07-26T18:43:49.823Z,38.20
2018-07-26T18:46:19.400Z,38.10
2018-07-26T18:48:50.732Z,37.90
2018-07-26T18:51:20.359Z,37.70
2018-07-26T18:53:49.871Z,37.40
2018-07-26T18:56:20.206Z,37.20
2018-07-26T19:01:18.660Z,36.90
2018-07-26T19:03:48.328Z,36.70
2018-07-26T19:06:17.832Z,36.40
2018-07-26T19:08:47.320Z,36.20
2018-07-26T19:11:16.645Z,36.10
2018-07-26T19:13:47.087Z,35.90
2018-07-26T19:16:16.354Z,35.80
2018-07-26T19:18:47.924Z,35.70
2018-07-26T19:21:17.251Z,35.60
2018-07-26T19:23:46.754Z,35.50
2018-07-26T19:26:18.754Z,35.40
2018-07-26T19:28:48.530Z,35.30
2018-07-26T19:31:18.955Z,35.20
2018-07-26T19:33:48.831Z,35.00
2018-07-26T19:36:18.309Z,34.90
2018-07-26T19:38:47.631Z,34.70
2018-07-26T19:41:17.391Z,34.50
2018-07-26T19:43:48.302Z,34.40
2018-07-26T19:46:17.549Z,34.20
2018-07-26T19:48:48.037Z,34.10
2018-07-26T19:51:17.414Z,33.90
2018-07-26T19:53:50.722Z,33.90
2018-07-26T19:56:21.283Z,33.80
2018-07-26T19:58:50.887Z,33.70
2018-07-26T20:01:20.738Z,33.60
2018-07-26T20:03:50.303Z,33.60
2018-07-26T20:06:20.822Z,33.50
2018-07-26T20:08:50.090Z,33.30
2018-07-26T20:11:19.455Z,33.30
2018-07-26T20:13:49.159Z,33.20
2018-07-26T20:16:18.767Z,33.10
2018-07-26T20:18:48.261Z,33.00
2018-07-26T20:21:17.568Z,33.00
2018-07-26T20:23:48.083Z,32.90
2018-07-26T20:26:17.643Z,32.90
2018-07-26T20:28:47.971Z,32.90
2018-07-26T20:31:17.179Z,32.90
2018-07-26T20:33:46.773Z,32.80
2018-07-26T20:36:17.063Z,32.60
2018-07-26T20:38:46.466Z,32.50
2018-07-26T20:41:16.013Z,32.40
2018-07-26T20:43:45.303Z,32.30
2018-07-26T20:46:14.918Z,32.30
2018-07-26T20:48:46.131Z,32.20
2018-07-26T20:51:15.599Z,32.10
2018-07-26T20:53:44.920Z,31.90
2018-07-26T20:56:14.596Z,31.80
2018-07-26T20:58:44.207Z,31.70
2018-07-26T21:01:14.649Z,31.70
2018-07-26T21:03:44.115Z,31.60
2018-07-26T21:06:14.567Z,31.50
2018-07-26T21:08:44.392Z,31.50
2018-07-26T21:11:14.686Z,31.40
2018-07-26T21:13:45.147Z,31.30
2018-07-26T21:16:14.443Z,31.20
2018-07-26T21:18:44.107Z,31.10
2018-07-26T21:21:14.573Z,31.10
2018-07-26T21:23:44.771Z,30.90
2018-07-26T21:26:14.143Z,30.80
2018-07-26T21:28:43.416Z,30.70
2018-07-26T21:31:12.758Z,30.80
2018-07-26T21:33:42.257Z,30.70
2018-07-26T21:36:11.675Z,30.70
2018-07-26T21:38:40.927Z,30.60
2018-07-26T21:41:10.232Z,30.50
2018-07-26T21:43:39.831Z,30.50
2018-07-26T21:46:09.019Z,30.40
2018-07-26T21:51:07.494Z,30.30
2018-07-26T21:53:36.943Z,30.20
2018-07-26T21:56:06.903Z,30.10
2018-07-26T21:58:36.303Z,30.00
2018-07-26T22:01:05.739Z,30.00
2018-07-26T22:03:34.992Z,29.90
2018-07-26T22:06:04.487Z,29.90
2018-07-26T22:08:33.791Z,29.80
2018-07-26T22:11:03.072Z,29.70
2018-07-26T22:13:32.264Z,29.70
2018-07-26T22:16:01.987Z,29.50
2018-07-26T22:18:31.732Z,29.50
2018-07-26T22:21:00.984Z,29.40
2018-07-26T22:23:30.152Z,29.40
2018-07-26T22:25:59.395Z,29.30
2018-07-26T22:28:28.732Z,29.20
2018-07-26T22:30:58.059Z,29.20
2018-07-26T22:33:27.352Z,29.10
2018-07-26T22:35:56.599Z,29.00
2018-07-26T22:38:25.787Z,29.00
2018-07-26T22:40:55.803Z,28.90
2018-07-26T22:43:25.033Z,28.90
2018-07-26T22:45:54.216Z,28.90
2018-07-26T22:48:23.724Z,28.80
2018-07-26T22:50:53.072Z,28.80
2018-07-26T22:53:22.247Z,28.70
2018-07-26T22:55:51.655Z,28.70
2018-07-26T22:58:21.163Z,28.60
2018-07-26T23:00:50.411Z,28.50
2018-07-26T23:03:19.818Z,28.50
2018-07-26T23:05:49.015Z,28.40
2018-07-26T23:08:18.170Z,28.30
2018-07-26T23:10:47.379Z,28.30
2018-07-26T23:15:45.438Z,28.10
2018-07-26T23:18:14.678Z,28.00
2018-07-26T23:20:43.865Z,27.90
2018-07-26T23:23:13.006Z,27.90
2018-07-26T23:25:42.536Z,27.80
2018-07-26T23:28:11.677Z,27.80
2018-07-26T23:30:40.843Z,27.70
2018-07-26T23:33:10.033Z,27.70
2018-07-26T23:35:39.198Z,27.70
2018-07-26T23:38:10.680Z,27.70
2018-07-26T23:40:39.866Z,27.60
2018-07-26T23:43:09.063Z,27.60
2018-07-26T23:45:38.266Z,27.60
2018-07-26T23:48:08.106Z,27.50
2018-07-26T23:50:37.842Z,27.50
2018-07-26T23:53:06.994Z,27.40
2018-07-26T23:55:36.190Z,27.40
2018-07-26T23:58:05.483Z,27.40
